Surprise, AZ

11:38 PM MST on February 26, 2015 (GMT -0700)
Luke Air Force Base | Change Station
CLOSE
Current Station
Airport
Location: Glendale Luke AFB,
Elevation: 1089 ft
Nearby Weather Stations

Elev 1089 ft 33.53 °N, 112.38 °W | Updated 40 minutes ago

Clear
Clear
54 °F
Feels Like 54 °F
N
6
Wind Variable Wind from NNW

Today
High -- | Low -- °F
--% Chance of Precip.
Yesterday
High -- | Low -- °F
Precip. -- in
7:01 AM 6:23 PM
Waxing Gibbous, 66% visible
Pressure 29.75 in
Visibility 10.0 miles
Clouds Clear
Dew Point 34 °F
Humidity 48%
Rainfall 0.00 in
Snow Depth Not available.
UV 0 out of 12
Pollen 9.10 out of 12
Air Quality Not available.
Flu Activity Not available.
METAR KLUF 270558Z AUTO 33005KT 10SM CLR 12/01 A2976 RMK AO2 SLP073 T01210013 10235 20121 52006 $

More Conditions Fewer Conditions

Pressure 29.75 in
Visibility 10.0 miles
Clouds Clear
Dew Point 34 °F
Humidity 48%
Rainfall 0.00 in
Snow Depth Not available.
UV 0 out of 12
Pollen 9.10 out of 12
Air Quality Not available.
Flu Activity Not available.
METAR KLUF 270558Z AUTO 33005KT 10SM CLR 12/01 A2976 RMK AO2 SLP073 T01210013 10235 20121 52006 $

More Conditions Fewer Conditions

10-Day Weather Forecast

Almanac

Astronomy

Feb. 26, 2015 Rise Set
Actual Time
Civil Twilight
Nautical Twilight
Astronomical Twilight
Moon
Length of Visible Light
Length of Day
Tomorrow will be .
, % of the Moon is Illuminated

Today's Extremes

State Highs State Lows

Community

WunderPhotos

Upload Photos

1,800,646 photos uploaded!

WunderBlogs® & News

Nearby

Air Quality

  Air Quality AQ Index Pollutant
Not available.

Snow Depth

Station Depth Elevation

Earthquake Activity

City Distance Mag. Time & Date
Minimum magnitude displayed is 2.5.

Coastal Water Temperatures

Place Temperature

Nearby Weather Stations